createdAt,value
2022-11-21T00:03:25.265Z,20.33
2022-11-21T00:07:26.731Z,19.73
2022-11-21T00:11:28.354Z,19.17
2022-11-21T00:15:30.064Z,21.38
2022-11-21T00:19:31.589Z,21.02
2022-11-21T00:23:33.157Z,27.88
2022-11-21T00:27:34.651Z,20.70
2022-11-21T00:31:36.116Z,24.15
2022-11-21T00:35:37.605Z,23.73
2022-11-21T00:39:39.108Z,19.73
2022-11-21T00:43:40.577Z,21.83
2022-11-21T00:47:42.069Z,21.73
2022-11-21T00:51:43.802Z,23.73
2022-11-21T00:55:45.396Z,23.98
2022-11-21T00:59:46.861Z,24.48
2022-11-21T01:03:48.459Z,21.77
2022-11-21T01:07:49.872Z,22.80
2022-11-21T01:11:51.617Z,18.98
2022-11-21T01:15:53.168Z,22.08
2022-11-21T01:19:54.703Z,24.63
2022-11-21T01:23:58.463Z,25.10
2022-11-21T01:27:59.948Z,25.33
2022-11-21T01:32:01.487Z,21.80
2022-11-21T01:36:10.372Z,19.00
2022-11-21T01:40:12.540Z,24.70
2022-11-21T01:44:19.400Z,22.08
2022-11-21T01:48:28.666Z,26.45
2022-11-21T01:52:32.575Z,26.80
2022-11-21T01:56:41.364Z,19.90
2022-11-21T02:00:45.693Z,25.92
2022-11-21T02:04:48.456Z,21.63
2022-11-21T02:08:50.325Z,23.42
2022-11-21T02:12:53.599Z,26.02
2022-11-21T02:17:00.306Z,21.42
2022-11-21T02:21:37.032Z,24.05
2022-11-21T02:25:41.508Z,20.35
2022-11-21T02:29:43.403Z,18.60
2022-11-21T02:33:44.884Z,22.55
2022-11-21T02:37:51.748Z,22.15
2022-11-21T02:42:02.311Z,27.58
2022-11-21T02:46:03.941Z,25.75
2022-11-21T02:50:19.626Z,25.52
2022-11-21T02:54:21.176Z,23.38
2022-11-21T02:58:22.806Z,26.95
2022-11-21T03:02:24.363Z,29.13
2022-11-21T03:06:25.862Z,22.80
2022-11-21T03:10:27.456Z,21.77
2022-11-21T03:14:29.185Z,27.88
2022-11-21T03:18:30.925Z,21.55
2022-11-21T03:22:32.446Z,22.52
2022-11-21T03:26:33.924Z,28.95
2022-11-21T03:30:35.513Z,24.40
2022-11-21T03:34:37.032Z,27.45
2022-11-21T03:38:38.551Z,21.58
2022-11-21T03:42:40.135Z,23.23
2022-11-21T03:46:46.410Z,24.90
2022-11-21T03:50:48.014Z,24.30
2022-11-21T03:54:49.518Z,25.55
2022-11-21T03:58:51.238Z,25.55
2022-11-21T04:02:52.744Z,24.40
2022-11-21T04:06:54.308Z,28.77
2022-11-21T04:10:55.879Z,20.67
2022-11-21T04:14:57.415Z,28.48
2022-11-21T04:18:58.914Z,25.83
2022-11-21T04:23:00.501Z,27.90
2022-11-21T04:27:02.060Z,27.88
2022-11-21T04:31:10.275Z,27.83
2022-11-21T04:35:12.503Z,23.00
2022-11-21T04:39:13.993Z,23.98
2022-11-21T04:43:15.525Z,24.55
2022-11-21T04:47:17.055Z,23.77
2022-11-21T04:51:18.589Z,27.95
2022-11-21T04:55:21.794Z,27.77
2022-11-21T04:59:23.351Z,25.77
2022-11-21T05:03:24.949Z,26.42
2022-11-21T05:07:26.738Z,24.40
2022-11-21T05:11:46.921Z,26.00
2022-11-21T05:15:51.600Z,26.85
2022-11-21T05:19:53.197Z,28.17
2022-11-21T05:23:54.724Z,26.98
2022-11-21T05:27:56.869Z,31.30
2022-11-21T05:31:58.402Z,31.73
2022-11-21T05:36:00.063Z,28.90
2022-11-21T05:40:01.680Z,29.10
2022-11-21T05:44:03.191Z,33.88
2022-11-21T05:48:08.036Z,26.67
2022-11-21T05:52:09.828Z,30.00
2022-11-21T05:56:18.231Z,26.10
2022-11-21T06:00:19.898Z,25.20
2022-11-21T06:04:21.435Z,22.35
2022-11-21T06:08:22.962Z,29.17
2022-11-21T06:12:25.825Z,26.40
2022-11-21T06:16:27.409Z,25.65
2022-11-21T06:20:28.973Z,28.70
2022-11-21T06:24:30.588Z,32.78
2022-11-21T06:28:34.502Z,28.88
2022-11-21T06:32:39.081Z,27.05
2022-11-21T06:36:40.662Z,28.85
2022-11-21T06:40:42.144Z,30.27
2022-11-21T06:44:43.613Z,33.50
2022-11-21T06:48:45.423Z,31.23
2022-11-21T06:52:47.101Z,28.17
2022-11-21T06:56:52.890Z,26.83
2022-11-21T07:00:54.445Z,29.40
2022-11-21T07:04:56.066Z,27.63
2022-11-21T07:09:31.117Z,32.08
2022-11-21T07:13:21.931Z,29.10
2022-11-21T07:17:23.619Z,29.50
2022-11-21T07:21:25.064Z,27.65
2022-11-21T07:25:26.588Z,33.08
2022-11-21T07:29:28.229Z,29.48
2022-11-21T07:33:30.510Z,26.58
2022-11-21T07:37:32.096Z,30.45
2022-11-21T07:41:33.589Z,25.67
2022-11-21T07:45:35.121Z,25.73
2022-11-21T07:49:37.022Z,30.58
2022-11-21T07:53:38.532Z,30.13
2022-11-21T07:57:39.991Z,31.60
2022-11-21T08:01:45.401Z,27.63
2022-11-21T08:05:47.289Z,30.88
2022-11-21T08:09:49.065Z,32.88
2022-11-21T08:13:50.552Z,34.65
2022-11-21T08:17:52.019Z,36.65
2022-11-21T08:21:53.549Z,25.55
2022-11-21T08:25:54.956Z,36.45
2022-11-21T08:29:56.433Z,36.95
2022-11-21T08:33:57.948Z,32.63
2022-11-21T08:38:01.117Z,32.53
2022-11-21T08:42:05.502Z,28.20
2022-11-21T08:46:06.983Z,34.03
2022-11-21T08:50:09.393Z,35.30
2022-11-21T08:54:11.086Z,27.48
2022-11-21T08:58:12.493Z,32.28
2022-11-21T09:02:13.957Z,13.55
2022-11-21T09:06:15.604Z,30.02
2022-11-21T09:10:17.153Z,28.85
2022-11-21T09:14:37.523Z,23.70
2022-11-21T09:22:40.302Z,27.23
2022-11-21T09:26:41.785Z,23.27
2022-11-21T09:30:43.788Z,25.95
2022-11-21T09:34:45.352Z,30.13
2022-11-21T09:38:46.808Z,34.03
2022-11-21T09:42:50.932Z,27.77
2022-11-21T09:47:00.826Z,27.48
2022-11-21T09:55:29.343Z,21.05
2022-11-21T09:59:38.849Z,20.23
2022-11-21T10:03:49.557Z,22.25
2022-11-21T10:07:55.668Z,27.13
2022-11-21T10:12:36.888Z,25.73
2022-11-21T10:21:15.940Z,21.88
2022-11-21T10:25:33.149Z,16.52
2022-11-21T10:29:45.395Z,13.93
2022-11-21T10:33:47.881Z,19.20
2022-11-21T10:38:01.082Z,24.45
2022-11-21T10:42:36.153Z,20.92
2022-11-21T10:46:37.560Z,10.43
2022-11-21T10:51:07.785Z,15.00
2022-11-21T10:55:14.216Z,16.85
2022-11-21T10:59:34.156Z,16.67
2022-11-21T11:03:35.599Z,23.00
2022-11-21T11:07:37.162Z,20.15
2022-11-21T11:11:38.635Z,15.20
2022-11-21T11:16:02.720Z,19.92
2022-11-21T11:20:07.771Z,19.80
2022-11-21T11:24:09.137Z,19.42
2022-11-21T11:28:12.884Z,24.60
2022-11-21T11:32:21.543Z,25.65
2022-11-21T11:37:03.939Z,23.40
2022-11-21T11:41:19.677Z,13.95
2022-11-21T11:46:14.835Z,18.10
2022-11-21T11:50:20.084Z,18.67
2022-11-21T11:54:29.845Z,22.60
2022-11-21T11:58:40.409Z,22.63
2022-11-21T12:02:53.275Z,19.15
2022-11-21T12:12:08.729Z,16.45
2022-11-21T12:16:14.147Z,19.00
2022-11-21T12:20:30.549Z,18.77
2022-11-21T12:24:36.076Z,17.33
2022-11-21T12:28:41.284Z,16.80
2022-11-21T12:32:56.902Z,21.98
2022-11-21T12:37:10.580Z,21.75
2022-11-21T12:41:50.709Z,19.02
2022-11-21T12:46:25.901Z,17.98
2022-11-21T12:50:55.620Z,13.98
2022-11-21T12:55:14.441Z,10.20
2022-11-21T12:59:16.088Z,17.25
2022-11-21T13:03:29.135Z,24.35
2022-11-21T13:07:32.610Z,20.42
2022-11-21T13:11:58.027Z,35.92
2022-11-21T13:16:10.427Z,16.05
2022-11-21T13:20:24.244Z,19.10
2022-11-21T13:24:44.167Z,17.70
2022-11-21T13:28:47.105Z,16.45
2022-11-21T13:32:53.935Z,18.38
2022-11-21T13:36:55.339Z,19.10
2022-11-21T13:41:15.120Z,15.95
2022-11-21T13:45:43.484Z,18.95
2022-11-21T13:50:04.448Z,14.93
2022-11-21T13:54:28.330Z,18.25
2022-11-21T13:58:52.674Z,17.38
2022-11-21T14:03:17.494Z,18.25
2022-11-21T14:07:24.840Z,21.33
2022-11-21T14:11:38.898Z,22.52
2022-11-21T14:15:51.206Z,18.90
2022-11-21T14:19:56.109Z,16.58
2022-11-21T14:24:04.338Z,17.05
2022-11-21T14:28:11.575Z,19.00
2022-11-21T14:32:16.466Z,19.92
2022-11-21T14:36:26.832Z,24.35
2022-11-21T14:40:28.262Z,20.83
2022-11-21T14:44:29.844Z,23.60
2022-11-21T14:48:32.017Z,18.27
2022-11-21T14:52:34.180Z,18.83
2022-11-21T14:56:35.721Z,21.08
2022-11-21T15:00:59.122Z,18.15
2022-11-21T15:05:05.007Z,19.88
2022-11-21T15:13:58.532Z,21.23
2022-11-21T15:22:34.178Z,23.85
2022-11-21T15:26:36.135Z,19.58
2022-11-21T15:30:38.167Z,19.65
2022-11-21T15:34:39.642Z,17.45
2022-11-21T15:38:53.461Z,23.65
2022-11-21T15:42:54.981Z,21.08
2022-11-21T15:46:56.442Z,20.23
2022-11-21T15:50:59.092Z,17.73
2022-11-21T15:55:00.651Z,23.52
2022-11-21T15:59:02.599Z,19.95
2022-11-21T16:03:04.026Z,18.30
2022-11-21T16:07:05.546Z,23.05
2022-11-21T16:11:11.588Z,21.60
2022-11-21T16:15:13.259Z,20.13
2022-11-21T16:19:15.823Z,19.33
2022-11-21T16:23:17.341Z,16.75
2022-11-21T16:27:19.047Z,19.25
2022-11-21T16:31:22.934Z,17.75
2022-11-21T16:35:24.464Z,19.92
2022-11-21T16:39:25.919Z,22.42
2022-11-21T16:43:29.154Z,21.10
2022-11-21T16:47:30.604Z,22.42
2022-11-21T16:51:32.083Z,20.98
2022-11-21T16:55:33.582Z,24.80
2022-11-21T16:59:35.050Z,21.30
2022-11-21T17:03:38.708Z,20.10
2022-11-21T17:07:40.243Z,20.25
2022-11-21T17:11:41.771Z,27.65
2022-11-21T17:15:43.307Z,22.42
2022-11-21T17:19:45.014Z,26.35
2022-11-21T17:23:48.197Z,25.58
2022-11-21T17:27:49.728Z,27.05
2022-11-21T17:31:51.328Z,22.63
2022-11-21T17:35:53.003Z,21.58
2022-11-21T17:39:54.470Z,26.05
2022-11-21T17:43:57.549Z,24.27
2022-11-21T17:47:58.922Z,25.25
2022-11-21T17:52:00.360Z,23.10
2022-11-21T17:56:06.487Z,30.70
2022-11-21T18:00:08.630Z,26.33
2022-11-21T18:04:14.895Z,26.00
2022-11-21T18:08:19.917Z,25.65
2022-11-21T18:12:27.475Z,27.15
2022-11-21T18:16:32.575Z,21.17
2022-11-21T18:20:34.134Z,26.30
2022-11-21T18:24:35.826Z,24.88
2022-11-21T18:28:37.685Z,25.38
2022-11-21T18:32:39.248Z,25.73
2022-11-21T18:36:43.616Z,24.67
2022-11-21T18:40:45.188Z,29.05
2022-11-21T18:44:50.395Z,28.73
2022-11-21T18:49:04.269Z,24.48
2022-11-21T18:53:10.038Z,22.77
2022-11-21T18:57:13.662Z,27.20
2022-11-21T19:01:20.462Z,21.17
2022-11-21T19:05:24.834Z,25.63
2022-11-21T19:09:32.547Z,24.85
2022-11-21T19:13:37.979Z,25.33
2022-11-21T19:17:40.402Z,25.13
2022-11-21T19:21:42.949Z,25.98
2022-11-21T19:25:44.516Z,22.88
2022-11-21T19:29:46.025Z,17.85
2022-11-21T19:33:47.607Z,24.58
2022-11-21T19:37:49.256Z,18.15
2022-11-21T19:41:51.150Z,21.48
2022-11-21T19:45:57.837Z,16.65
2022-11-21T19:50:00.685Z,19.38
2022-11-21T19:54:03.509Z,18.88
2022-11-21T19:58:05.019Z,22.85
2022-11-21T20:02:06.743Z,17.05
2022-11-21T20:06:16.260Z,18.10
2022-11-21T20:10:17.908Z,21.73
2022-11-21T20:14:22.452Z,18.45
2022-11-21T20:18:24.554Z,18.13
2022-11-21T20:22:29.230Z,17.20
2022-11-21T20:26:32.280Z,18.17
2022-11-21T20:30:42.077Z,16.35
2022-11-21T20:34:43.578Z,23.23
2022-11-21T20:39:12.902Z,18.98
2022-11-21T20:43:15.863Z,16.15
2022-11-21T20:47:18.554Z,15.98
2022-11-21T20:55:45.089Z,15.75
2022-11-21T20:59:46.647Z,19.00
2022-11-21T21:03:48.909Z,21.15
2022-11-21T21:07:50.453Z,15.57
2022-11-21T21:11:53.427Z,18.90
2022-11-21T21:15:55.345Z,15.98
2022-11-21T21:19:56.922Z,13.60
2022-11-21T21:24:07.184Z,16.25
2022-11-21T21:28:09.357Z,17.20
2022-11-21T21:32:11.514Z,19.77
2022-11-21T21:36:15.250Z,19.08
2022-11-21T21:40:17.306Z,20.13
2022-11-21T21:44:19.807Z,17.05
2022-11-21T21:48:21.312Z,15.20
2022-11-21T21:52:22.867Z,15.77
2022-11-21T21:56:26.929Z,15.35
2022-11-21T22:00:28.383Z,17.85
2022-11-21T22:04:32.038Z,19.50
2022-11-21T22:08:35.732Z,17.63
2022-11-21T22:12:42.556Z,14.10
2022-11-21T22:16:45.575Z,19.23
2022-11-21T22:20:47.111Z,17.10
2022-11-21T22:24:48.585Z,19.10
2022-11-21T22:28:50.363Z,18.40
2022-11-21T22:32:52.412Z,15.25
2022-11-21T22:36:53.975Z,14.90
2022-11-21T22:41:07.463Z,20.40
2022-11-21T22:45:09.917Z,23.17
2022-11-21T22:49:11.503Z,17.38
2022-11-21T22:53:12.974Z,15.55
2022-11-21T22:57:14.518Z,19.20
2022-11-21T23:01:20.112Z,13.70
2022-11-21T23:05:21.687Z,18.80
2022-11-21T23:09:23.183Z,17.58
2022-11-21T23:13:24.697Z,19.80
2022-11-21T23:17:26.197Z,19.75
2022-11-21T23:21:27.764Z,17.63
2022-11-21T23:25:29.202Z,26.58
2022-11-21T23:29:31.039Z,20.38
2022-11-21T23:33:32.824Z,11.13
2022-11-21T23:37:34.309Z,15.75
2022-11-21T23:41:36.122Z,21.17
2022-11-21T23:45:37.726Z,18.58
2022-11-21T23:49:39.216Z,20.60
2022-11-21T23:53:40.670Z,19.13
2022-11-21T23:57:42.340Z,22.63
